Midwest, Wyoming
Current Conditions -  °F | °C
As of 4:53 AM on Sunday 21 Dec 2014 (Local Time) from KCPR Reporting Station
Clear Clear  
Wind Chill: 22°   Ceiling: Unl
Heat Index: 34°   Visibility: 10mi
Dew Point: 27°   Wind: 21mph
Humidity: 75%   Direction: 220°SW
Pressure: 29.65"   Gusts: 29mph
Location:  43.41°N, 106.28°W
Report Text: KCPR 211153Z 22018G25KT 10SM CLR 01/M03 A2965 RMK AO2 PK WND 22027/1141 SLP047 T00111028 10017 21006 58026
Loading
Personal Weather Stations






























Interactive Weather Map New forecast layout! Learn more

10-Day Weather Forecast

Advertisements
Track Severe Weather on mobile